Delta Virtual Airport Information Service

San Diego International Airport

ICAO: KSAN Country: United States
Latitude: 32.7336 Longitude: -117.189
Latest Arrival : DAL1744 (1) (KSEA-KSAN) Latest Departure : DAL2546 (B) (KSAN-KSLC)


WX CaptureLIVE
Data provided by noaa.gov | Fetched at 00:40:53

METAR : KSAN 250451Z 30004KT 10SM FEW012 18/14 A2994 RMK AO2 SLP136 T01830139

TAF : KSAN 250305Z 2503/2606 VRB04KT P6SM FEW012 FM250900 VRB04KT P6SM BKN010 FM251630 VRB04KT P6SM SCT012 FM252000 29010KT P6SM FEW015 FM260300 VRB05KT 5SM BR SCT008


Runway Data for KSAN
Data provided by openaviationdata.com

Runway ID Mag Var Hdg Length Elevation Surface ILS Freq ILS Id ILS Slope
9 13 92° 9394 ft 15 ft Concrete 110.9 ISAN 3
27 13 272° 9394 ft 15 ft Concrete 110.9 IUBR 0

San Diego International Airport, United States
Use only for reference purposes



Not for navigational purposes.